Time;durP1;ratioP1;P1;durP2;ratioP2;P2;SDS_P1;SDS_P2;PMS_P1;PMS_P2;Temp;Humidity;BMP_temperature;BMP_pressure;BME280_temperature;BME280_humidity;BME280_pressure;Samples;Min_cycle;Max_cycle;Signal;HPM_P1;HPM_P2
2022/02/11 00:00:18;;;;;;;;;;;;;;;5.58;59.49;100251.69;4333442;33;19980;-85
2022/02/11 00:08:09;;;;;;;;;;;;;;;5.37;59.47;100272.41;4301731;33;20008;-85
2022/02/11 00:10:34;;;;;;;;;;;;;;;5.35;59.47;100267.25;4326434;33;19972;-85
2022/02/11 00:12:59;;;;;;;;;;;;;;;5.50;59.49;100262.06;4333506;33;20341;-86
2022/02/11 00:15:37;;;;;;;;;;;;;;;5.38;59.48;100262.06;4331211;33;30538;-87
2022/02/11 00:18:03;;;;;;;;;;;;;;;5.14;59.46;100257.81;4319747;33;19999;-86
2022/02/11 00:20:28;;;;;;;;;;;;;;;5.19;59.47;100262.97;4332177;33;19976;-88
2022/02/11 00:22:54;;;;;;;;;;;;;;;5.21;59.47;100258.69;4319658;33;20009;-87
2022/02/11 00:25:20;;;;;;;;;;;;;;;5.08;59.46;100257.00;4333082;33;20018;-87
2022/02/11 00:35:26;;;;;;;;;;;;;;;4.79;59.45;100263.03;4332072;33;19992;-87
2022/02/11 00:37:51;;;;;;;;;;;;;;;4.85;59.45;100272.50;4333319;33;19988;-85
2022/02/11 01:02:24;;;;;;;;;;;;;;;4.39;59.42;100274.19;4332307;33;20021;-84
2022/02/11 01:04:49;;;;;;;;;;;;;;;4.40;59.42;100273.31;4333038;33;20059;-83
2022/02/11 01:07:14;;;;;;;;;;;;;;;4.37;59.42;100269.03;4333176;33;19967;-82
2022/02/11 01:09:41;;;;;;;;;;;;;;;4.28;59.42;100280.19;4333164;33;19995;-84
2022/02/11 01:12:07;;;;;;;;;;;;;;;4.36;59.43;100280.19;4333072;33;20039;-83
2022/02/11 01:14:38;;;;;;;;;;;;;;;4.22;59.42;100282.72;4332948;33;20004;-85
2022/02/11 01:48:00;;;;;;;;;;;;;;;3.77;59.39;100246.53;4332575;33;20043;-85
2022/02/11 01:55:55;;;;;;;;;;;;;;;3.92;59.40;100259.47;4331468;33;19987;-86
2022/02/11 02:04:03;;;;;;;;;;;;;;;3.81;59.39;100244.00;4332772;33;20043;-87
2022/02/11 02:09:30;;;;;;;;;;;;;;;3.81;59.39;100238.00;4332820;33;20039;-84
2022/02/11 02:14:39;;;;;;;;;;;;;;;3.99;59.41;100240.59;4332705;33;19975;-84
2022/02/11 02:27:45;;;;;;;;;;;;;;;3.94;59.39;100212.28;4332653;33;19984;-85
2022/02/11 02:50:10;;;;;;;;;;;;;;;3.84;59.39;100212.25;4317913;33;20711;-84
2022/02/11 03:14:32;;;;;;;;;;;;;;;3.65;59.38;100242.22;4304765;33;19995;-85
2022/02/11 04:55:13;;;;;;;;;;;;;;;3.78;59.39;100207.06;4318559;33;20002;-87
2022/02/11 05:00:22;;;;;;;;;;;;;;;3.70;59.39;100207.91;4318644;33;20040;-87
2022/02/11 05:02:48;;;;;;;;;;;;;;;3.67;59.38;100227.66;4304553;33;26691;-87
2022/02/11 05:05:13;;;;;;;;;;;;;;;3.59;59.38;100224.19;4305226;33;20283;-87
2022/02/11 05:07:39;;;;;;;;;;;;;;;3.64;59.38;100223.34;4305077;33;20000;-88
2022/02/11 05:10:04;;;;;;;;;;;;;;;3.75;59.38;100227.66;4292833;33;20330;-87
2022/02/11 05:12:29;;;;;;;;;;;;;;;3.74;59.39;100231.09;4305283;33;20463;-87
2022/02/11 05:14:55;;;;;;;;;;;;;;;3.73;59.39;100226.78;4292925;33;20326;-87
2022/02/11 05:17:20;;;;;;;;;;;;;;;3.81;59.39;100232.84;4304995;33;20298;-87
2022/02/11 05:19:45;;;;;;;;;;;;;;;3.79;59.39;100235.44;4304989;33;20004;-85
2022/02/11 05:22:10;;;;;;;;;;;;;;;3.67;59.38;100240.53;4317852;33;27239;-86
2022/02/11 05:24:36;;;;;;;;;;;;;;;3.63;59.38;100237.06;4292984;33;19988;-86
2022/02/11 05:27:01;;;;;;;;;;;;;;;3.61;59.38;100243.94;4292480;33;27961;-87
2022/02/11 05:29:26;;;;;;;;;;;;;;;3.55;59.38;100250.75;4304933;33;19992;-85
2022/02/11 05:31:51;;;;;;;;;;;;;;;3.77;59.39;100251.69;4318455;33;19992;-86
2022/02/11 05:34:17;;;;;;;;;;;;;;;3.71;59.39;100247.37;4292640;33;20011;-86
2022/02/11 05:36:42;;;;;;;;;;;;;;;3.72;59.38;100245.69;4304954;33;19999;-86
2022/02/11 05:39:07;;;;;;;;;;;;;;;3.93;59.39;100248.31;4292222;33;19984;-86
2022/02/11 05:41:32;;;;;;;;;;;;;;;3.41;59.37;100245.56;4304682;33;20015;-85
2022/02/11 05:43:58;;;;;;;;;;;;;;;3.77;59.39;100243.97;4292486;33;20278;-84
2022/02/11 05:46:27;;;;;;;;;;;;;;;3.69;59.39;100249.09;4304915;33;19995;-84
2022/02/11 05:48:52;;;;;;;;;;;;;;;3.69;59.38;100244.81;4318451;33;20047;-84
2022/02/11 05:51:18;;;;;;;;;;;;;;;3.52;59.37;100238.72;4304691;33;20032;-87
2022/02/11 05:53:43;;;;;;;;;;;;;;;3.43;59.36;100245.56;4304198;33;28033;-85
2022/02/11 05:56:08;;;;;;;;;;;;;;;3.47;59.38;100243.00;4318059;33;20055;-85
2022/02/11 05:58:33;;;;;;;;;;;;;;;3.42;59.37;100236.13;4316078;33;32442;-85
2022/02/11 06:00:59;;;;;;;;;;;;;;;3.40;59.37;100241.25;4318232;33;20345;-84
2022/02/11 06:03:24;;;;;;;;;;;;;;;3.38;59.36;100243.84;4304276;33;20639;-86
2022/02/11 06:05:49;;;;;;;;;;;;;;;3.56;59.38;100243.06;4292191;33;19988;-85
2022/02/11 06:08:14;;;;;;;;;;;;;;;3.45;59.36;100236.13;4317942;33;19995;-84
2022/02/11 06:10:39;;;;;;;;;;;;;;;3.28;59.36;100239.47;4317706;33;20011;-84
2022/02/11 06:13:05;;;;;;;;;;;;;;;3.47;59.38;100237.00;4292497;33;19999;-84
2022/02/11 06:15:30;;;;;;;;;;;;;;;3.43;59.37;100243.84;4304592;33;19984;-85
2022/02/11 06:17:55;;;;;;;;;;;;;;;3.39;59.37;100237.81;4318313;33;19995;-85
2022/02/11 06:20:27;;;;;;;;;;;;;;;3.32;59.37;100248.97;4317976;33;19980;-85
2022/02/11 06:22:53;;;;;;;;;;;;;;;3.44;59.37;100237.84;4304593;33;20839;-84
2022/02/11 06:25:18;;;;;;;;;;;;;;;3.47;59.37;100237.00;4317942;33;20020;-85
2022/02/11 06:27:43;;;;;;;;;;;;;;;3.74;59.38;100241.38;4317989;33;20007;-84
2022/02/11 06:30:09;;;;;;;;;;;;;;;3.62;59.38;100243.06;4304448;33;20298;-85
2022/02/11 06:32:34;;;;;;;;;;;;;;;3.80;59.39;100251.72;4318030;33;20283;-85
2022/02/11 06:34:59;;;;;;;;;;;;;;;3.89;59.39;100247.47;4317744;33;20615;-85
2022/02/11 06:37:24;;;;;;;;;;;;;;;3.98;59.41;100246.63;4303889;33;29785;-85
2022/02/11 06:39:50;;;;;;;;;;;;;;;3.92;59.40;100242.31;4304570;33;20319;-85
2022/02/11 06:42:15;;;;;;;;;;;;;;;4.03;59.40;100244.94;4317828;33;20016;-85
2022/02/11 06:44:40;;;;;;;;;;;;;;;4.16;59.41;100246.66;4317802;33;20004;-84
2022/02/11 06:47:05;;;;;;;;;;;;;;;4.13;59.41;100245.81;4304184;33;19989;-84
2022/02/11 06:49:31;;;;;;;;;;;;;;;4.33;59.42;100244.13;4304512;33;19989;-85
2022/02/11 06:51:57;;;;;;;;;;;;;;;4.34;59.41;100245.84;4317496;33;19991;-84
2022/02/11 06:54:22;;;;;;;;;;;;;;;4.30;59.42;100249.28;4304293;33;20295;-85
2022/02/11 06:56:47;;;;;;;;;;;;;;;4.31;59.42;100246.69;4304240;33;19996;-85
2022/02/11 06:59:13;;;;;;;;;;;;;;;4.52;59.43;100245.84;4291659;33;21536;-85
2022/02/11 07:01:38;;;;;;;;;;;;;;;4.48;59.42;100245.84;4304125;33;20351;-84
2022/02/11 07:04:03;;;;;;;;;;;;;;;4.61;59.44;100251.00;4317687;33;20006;-85
2022/02/11 07:06:28;;;;;;;;;;;;;;;4.65;59.44;100241.53;4304116;33;20358;-85
2022/02/11 07:08:55;;;;;;;;;;;;;;;4.93;59.46;100240.66;4317775;33;20043;-85
2022/02/11 07:11:21;;;;;;;;;;;;;;;4.72;59.45;100232.06;4304555;33;20055;-85
2022/02/11 07:13:46;;;;;;;;;;;;;;;4.97;59.46;100233.81;4317191;33;20000;-85
2022/02/11 07:16:11;;;;;;;;;;;;;;;5.11;59.46;100232.03;4314974;33;20019;-83
2022/02/11 07:18:36;;;;;;;;;;;;;;;5.29;59.47;100228.56;4331998;33;20321;-82
2022/02/11 07:21:02;;;;;;;;;;;;;;;5.35;59.47;100225.94;4331808;33;19984;-82
2022/02/11 07:23:27;;;;;;;;;;;;;;;5.39;59.48;100221.62;4331416;33;24483;-84
2022/02/11 07:25:52;;;;;;;;;;;;;;;5.59;59.49;100219.84;4330044;33;20063;-84
2022/02/11 07:28:20;;;;;;;;;;;;;;;5.80;59.50;100213.72;4330465;33;20000;-85
2022/02/11 07:30:48;;;;;;;;;;;;;;;5.82;59.50;100215.41;4332266;33;19999;-87
2022/02/11 07:33:13;;;;;;;;;;;;;;;5.98;59.51;100213.66;4318855;33;20389;-85
2022/02/11 07:35:38;;;;;;;;;;;;;;;6.26;59.52;100209.16;4317672;33;32369;-84
2022/02/11 07:38:04;;;;;;;;;;;;;;;6.35;59.54;100201.31;4331233;33;26086;-84
2022/02/11 07:40:29;;;;;;;;;;;;;;;6.38;59.54;100203.88;4331858;33;19987;-84
2022/02/11 07:42:54;;;;;;;;;;;;;;;6.54;59.54;100188.25;4331883;33;19988;-84
2022/02/11 07:45:20;;;;;;;;;;;;;;;6.90;59.57;100197.41;4331625;33;19984;-83
2022/02/11 07:47:45;;;;;;;;;;;;;;;6.97;59.57;100202.50;4330197;33;19992;-84
2022/02/11 07:50:10;;;;;;;;;;;;;;;6.89;59.57;100195.69;4318016;33;20004;-84
2022/02/11 07:52:35;;;;;;;;;;;;;;;6.98;59.57;100190.41;4317989;33;19980;-85
2022/02/11 07:55:01;;;;;;;;;;;;;;;6.90;59.57;100190.50;4331011;33;27851;-84
2022/02/11 07:57:26;;;;;;;;;;;;;;;7.07;59.57;100198.94;4331456;33;20328;-83
2022/02/11 07:59:51;;;;;;;;;;;;;;;7.40;59.60;100196.84;4305686;33;20484;-84
2022/02/11 08:02:17;;;;;;;;;;;;;;;7.70;59.61;100188.69;4317856;33;19976;-86
2022/02/11 08:04:42;;;;;;;;;;;;;;;7.92;59.62;100193.56;4333123;33;20043;-85
2022/02/11 08:07:07;;;;;;;;;;;;;;;8.06;59.63;100186.47;4319967;33;20035;-85
2022/02/11 08:09:32;;;;;;;;;;;;;;;8.12;59.63;100185.50;4333055;33;19999;-84
2022/02/11 08:11:58;;;;;;;;;;;;;;;8.20;59.64;100183.66;4319927;33;19987;-84
2022/02/11 08:14:26;;;;;;;;;;;;;;;8.19;59.63;100182.78;4319918;33;20006;-83
2022/02/11 08:16:51;;;;;;;;;;;;;;;8.18;59.63;100191.47;4333500;33;20360;-85
2022/02/11 08:19:22;;;;;;;;;;;;;;;8.42;59.64;100182.47;4319274;33;31574;-84
2022/02/11 08:21:47;;;;;;;;;;;;;;;8.64;59.66;100185.56;4320537;33;19996;-84
2022/02/11 08:24:13;;;;;;;;;;;;;;;9.01;59.68;100174.53;4332742;33;27672;-84
2022/02/11 08:26:38;;;;;;;;;;;;;;;9.15;59.69;100181.16;4307670;33;20043;-84
2022/02/11 08:29:04;;;;;;;;;;;;;;;9.29;59.70;100180.91;4319437;33;20332;-84
2022/02/11 08:31:30;;;;;;;;;;;;;;;9.38;59.70;100170.31;4332691;33;20006;-84
2022/02/11 08:33:55;;;;;;;;;;;;;;;9.51;59.71;100178.72;4331114;33;19999;-85
2022/02/11 08:36:21;;;;;;;;;;;;;;;9.78;59.72;100190.28;4331927;33;26235;-84
2022/02/11 08:38:46;;;;;;;;;;;;;;;9.89;59.73;100193.47;4318946;33;20045;-85
2022/02/11 08:41:12;;;;;;;;;;;;;;;10.02;59.74;100192.34;4332444;33;20020;-84
2022/02/11 08:43:37;;;;;;;;;;;;;;;10.29;59.75;100184.81;4332446;33;19995;-84
2022/02/11 08:46:03;;;;;;;;;;;;;;;10.37;59.75;100183.72;4318736;33;19987;-85
2022/02/11 08:48:28;;;;;;;;;;;;;;;10.45;59.76;100181.81;4331202;33;20371;-87
2022/02/11 08:50:53;;;;;;;;;;;;;;;10.40;59.76;100175.84;4332335;33;19988;-85
2022/02/11 08:53:22;;;;;;;;;;;;;;;10.49;59.76;100168.72;4331937;33;25218;-84
2022/02/11 08:55:47;;;;;;;;;;;;;;;10.62;59.78;100167.50;4332368;33;20014;-84
2022/02/11 08:58:13;;;;;;;;;;;;;;;11.20;59.80;100156.38;4332120;33;20314;-85
2022/02/11 09:00:38;;;;;;;;;;;;;;;11.14;59.79;100159.16;4318891;33;20255;-87
2022/02/11 09:03:03;;;;;;;;;;;;;;;11.15;59.81;100155.66;4331798;33;21386;-84
2022/02/11 09:05:29;;;;;;;;;;;;;;;11.38;59.82;100150.66;4332315;33;20023;-85
2022/02/11 09:07:55;;;;;;;;;;;;;;;11.56;59.82;100145.78;4332239;33;19979;-85
2022/02/11 09:10:21;;;;;;;;;;;;;;;11.82;59.83;100148.50;4332280;33;20043;-86
2022/02/11 09:12:46;;;;;;;;;;;;;;;11.87;59.84;100144.00;4318733;33;20000;-86
2022/02/11 09:15:11;;;;;;;;;;;;;;;12.07;59.85;100153.81;4330934;33;20020;-84
2022/02/11 09:17:37;;;;;;;;;;;;;;;12.39;59.87;100151.94;4318553;33;20023;-86
2022/02/11 09:20:02;;;;;;;;;;;;;;;12.51;59.87;100148.87;4332123;33;19992;-89
2022/02/11 09:22:30;;;;;;;;;;;;;;;12.44;59.88;100147.41;4318601;33;19992;-91
2022/02/11 09:24:55;;;;;;;;;;;;;;;12.74;59.89;100140.28;4331312;33;19996;-92
2022/02/11 09:27:23;;;;;;;;;;;;;;;12.76;59.89;100133.22;4318746;33;20011;-89
2022/02/11 09:29:48;;;;;;;;;;;;;;;12.90;59.89;100121.41;4276275;33;926383;-87
2022/02/11 09:32:13;;;;;;;;;;;;;;;13.18;59.91;100123.06;4318056;33;20011;-89
2022/02/11 09:34:39;;;;;;;;;;;;;;;13.31;59.92;100131.31;4318205;33;20053;-89
2022/02/11 09:37:04;;;;;;;;;;;;;;;13.37;59.92;100125.84;4318064;33;20002;-86
2022/02/11 09:39:29;;;;;;;;;;;;;;;13.44;59.93;100135.16;4316816;33;19995;-87
2022/02/11 09:41:54;;;;;;;;;;;;;;;13.79;59.95;100134.66;4318165;33;20286;-90
2022/02/11 09:44:22;;;;;;;;;;;;;;;13.82;59.94;100134.53;4316906;33;20035;-86
2022/02/11 09:46:47;;;;;;;;;;;;;;;13.91;59.95;100143.78;4318012;33;20381;-89
2022/02/11 09:49:12;;;;;;;;;;;;;;;13.76;59.94;100142.66;4318359;33;20011;-87
2022/02/11 09:51:38;;;;;;;;;;;;;;;13.87;59.94;100142.22;4316522;33;25699;-91
2022/02/11 09:54:03;;;;;;;;;;;;;;;14.07;59.96;100144.03;4316904;33;19992;-90
2022/02/11 09:56:29;;;;;;;;;;;;;;;14.18;59.97;100141.84;4316714;33;20019;-88
2022/02/11 09:58:54;;;;;;;;;;;;;;;14.29;59.97;100141.41;4318196;33;19991;-90
2022/02/11 10:01:19;;;;;;;;;;;;;;;14.37;59.98;100150.66;4316910;33;20383;-89
2022/02/11 10:03:44;;;;;;;;;;;;;;;14.30;59.97;100154.44;4316878;33;20000;-90
2022/02/11 10:06:10;;;;;;;;;;;;;;;14.44;59.98;100146.06;4316808;33;20331;-90
2022/02/11 10:08:37;;;;;;;;;;;;;;;14.63;60.00;100139.13;4316767;33;20007;-90
2022/02/11 10:11:02;;;;;;;;;;;;;;;14.52;59.99;100137.88;4316631;33;20027;-88
2022/02/11 10:13:28;;;;;;;;;;;;;;;14.37;59.97;100139.31;4318103;33;20000;-90
2022/02/11 10:16:08;;;;;;;;;;;;;;;14.51;59.98;100129.16;4317915;33;20033;-88
2022/02/11 10:18:34;;;;;;;;;;;;;;;14.61;59.99;100129.63;4316882;33;19964;-88
2022/02/11 10:21:00;;;;;;;;;;;;;;;14.65;59.99;100137.28;4316775;33;20059;-90
2022/02/11 10:23:26;;;;;;;;;;;;;;;14.55;59.98;100129.88;4317882;33;20002;-89
2022/02/11 10:25:52;;;;;;;;;;;;;;;14.70;59.99;100124.00;4311453;33;20330;-88
2022/02/11 10:28:22;;;;;;;;;;;;;;;14.57;59.99;100125.44;4307486;33;20046;-90
2022/02/11 10:31:01;;;;;;;;;;;;;;;14.64;59.99;100126.88;4319078;33;19995;-89
2022/02/11 10:33:26;;;;;;;;;;;;;;;14.74;60.00;100129.03;4332959;33;20014;-87
2022/02/11 10:35:52;;;;;;;;;;;;;;;14.90;60.01;100131.84;4331820;33;25364;-85
2022/02/11 10:38:19;;;;;;;;;;;;;;;14.86;60.00;100134.66;4319097;33;20338;-91
2022/02/11 10:40:45;;;;;;;;;;;;;;;14.81;60.00;100119.13;4319437;33;20014;-92
2022/02/11 10:43:17;;;;;;;;;;;;;;;14.83;60.00;100125.16;4319203;33;20364;-90
2022/02/11 10:45:42;;;;;;;;;;;;;;;14.94;60.01;100112.47;4318961;33;20153;-89
2022/02/11 10:48:12;;;;;;;;;;;;;;;15.16;60.02;100114.13;4319100;33;19999;-86
2022/02/11 10:50:38;;;;;;;;;;;;;;;15.38;60.03;100109.59;4319119;33;20059;-88
2022/02/11 10:53:03;;;;;;;;;;;;;;;15.48;60.04;100108.25;4332143;33;19988;-89
2022/02/11 10:55:28;;;;;;;;;;;;;;;15.70;60.06;100105.50;4332217;33;19991;-87
2022/02/11 10:57:55;;;;;;;;;;;;;;;15.64;60.05;100109.28;4332376;33;19994;-85
2022/02/11 11:00:21;;;;;;;;;;;;;;;15.74;60.05;100109.69;4332198;33;19987;-86
2022/02/11 11:02:46;;;;;;;;;;;;;;;15.80;60.06;100103.28;4318791;33;20617;-86
2022/02/11 11:05:12;;;;;;;;;;;;;;;15.78;60.06;100098.09;4306442;33;19992;-86
2022/02/11 11:07:37;;;;;;;;;;;;;;;15.98;60.06;100093.69;4318721;33;19992;-85
2022/02/11 11:10:06;;;;;;;;;;;;;;;16.08;60.08;100094.91;4318656;33;19981;-86
2022/02/11 11:12:32;;;;;;;;;;;;;;;16.05;60.07;100095.06;4332235;33;19995;-86
2022/02/11 11:14:59;;;;;;;;;;;;;;;16.01;60.07;100093.53;4318763;33;20414;-85
2022/02/11 11:17:24;;;;;;;;;;;;;;;16.22;60.07;100090.69;4332253;33;20051;-85
2022/02/11 11:19:50;;;;;;;;;;;;;;;16.17;60.08;100087.44;4318500;33;20475;-86
2022/02/11 11:22:16;;;;;;;;;;;;;;;16.34;60.09;100077.87;4318798;33;20002;-85
2022/02/11 11:25:01;;;;;;;;;;;;;;;16.34;60.09;100070.00;4332022;33;19980;-84
2022/02/11 11:27:40;;;;;;;;;;;;;;;16.48;60.09;100073.63;4332634;33;19999;-88
2022/02/11 11:30:27;;;;;;;;;;;;;;;16.43;60.09;100065.13;4319627;33;20276;-92
2022/02/11 11:33:05;;;;;;;;;;;;;;;16.52;60.09;100062.00;4308278;33;20056;-93
2022/02/11 11:35:30;;;;;;;;;;;;;;;16.37;60.08;100067.22;4321698;33;19984;-89
2022/02/11 11:38:14;;;;;;;;;;;;;;;16.39;60.10;100070.63;4318997;33;20306;-89
2022/02/11 11:40:40;;;;;;;;;;;;;;;16.49;60.09;100064.81;4333923;33;20010;-87
2022/02/11 11:43:12;;;;;;;;;;;;;;;16.60;60.09;100069.53;4308069;33;20464;-90
2022/02/11 11:45:39;;;;;;;;;;;;;;;16.73;60.10;100062.72;4320427;33;20055;-88
2022/02/11 11:48:14;;;;;;;;;;;;;;;16.85;60.12;100064.72;4308505;33;19991;-90
2022/02/11 11:50:40;;;;;;;;;;;;;;;16.95;60.12;100065.06;4334060;33;20007;-89
2022/02/11 11:53:21;;;;;;;;;;;;;;;16.96;60.12;100056.25;4320382;33;20067;-89
2022/02/11 11:55:46;;;;;;;;;;;;;;;17.08;60.13;100060.00;4304604;33;19988;-85
2022/02/11 11:58:27;;;;;;;;;;;;;;;17.16;60.14;100055.19;4319052;33;19996;-84
2022/02/11 12:00:58;;;;;;;;;;;;;;;17.30;60.15;100054.44;4319211;33;19980;-84
2022/02/11 12:03:23;;;;;;;;;;;;;;;17.12;60.12;100057.13;4319126;33;19976;-86
2022/02/11 12:05:56;;;;;;;;;;;;;;;17.02;60.12;100055.06;4318505;33;26705;-85
2022/02/11 12:08:22;;;;;;;;;;;;;;;17.00;60.12;100056.91;4319259;33;19976;-84
2022/02/11 12:10:49;;;;;;;;;;;;;;;17.16;60.14;100052.53;4319171;33;20024;-86
2022/02/11 12:13:15;;;;;;;;;;;;;;;17.29;60.14;100050.97;4306175;33;20330;-94
2022/02/11 12:15:40;;;;;;;;;;;;;;;17.23;60.14;100053.91;4294764;33;20369;-91
2022/02/11 12:18:05;;;;;;;;;;;;;;;17.38;60.14;100052.22;4293130;33;20008;-89
2022/02/11 12:20:31;;;;;;;;;;;;;;;17.29;60.14;100058.84;4318425;33;22326;-89
2022/02/11 12:28:25;;;;;;;;;;;;;;;16.98;60.12;100064.03;4307420;33;20047;-87
2022/02/11 12:30:50;;;;;;;;;;;;;;;16.66;60.11;100071.84;4318347;33;25474;-88
2022/02/11 12:33:15;;;;;;;;;;;;;;;16.56;60.10;100067.97;4318592;33;20063;-88
2022/02/11 12:35:45;;;;;;;;;;;;;;;16.49;60.10;100067.44;4318725;33;19979;-88
2022/02/11 12:38:10;;;;;;;;;;;;;;;16.48;60.10;100072.75;4293646;33;20003;-86
2022/02/11 12:40:36;;;;;;;;;;;;;;;16.31;60.08;100075.38;4305948;33;20291;-89
2022/02/11 12:43:05;;;;;;;;;;;;;;;15.88;60.07;100080.16;4293454;33;19988;-89
2022/02/11 12:45:32;;;;;;;;;;;;;;;15.68;60.05;100088.13;4305400;33;20334;-89
2022/02/11 12:47:57;;;;;;;;;;;;;;;15.46;60.04;100098.75;4319172;33;19968;-90
2022/02/11 12:50:29;;;;;;;;;;;;;;;15.10;60.03;100096.88;4305189;33;20299;-89
2022/02/11 12:52:56;;;;;;;;;;;;;;;15.14;60.02;100094.97;4306538;33;20047;-96
2022/02/11 12:55:22;;;;;;;;;;;;;;;14.95;60.02;100110.69;4295731;33;20334;-92
2022/02/11 12:57:51;;;;;;;;;;;;;;;15.08;60.02;100106.59;4294906;33;20314;-92
2022/02/11 13:00:17;;;;;;;;;;;;;;;15.16;60.04;100116.75;4294533;33;20065;-89
2022/02/11 13:02:43;;;;;;;;;;;;;;;14.77;60.00;100114.94;4293316;33;20357;-87
2022/02/11 13:05:13;;;;;;;;;;;;;;;14.64;60.00;100119.00;4305067;33;20003;-85
2022/02/11 13:07:41;;;;;;;;;;;;;;;14.50;59.99;100132.72;4305841;33;20306;-90
2022/02/11 13:10:09;;;;;;;;;;;;;;;14.54;59.99;100126.41;4306071;33;20000;-93
2022/02/11 13:12:42;;;;;;;;;;;;;;;14.37;59.98;100128.84;4305733;33;19984;-87
2022/02/11 13:15:08;;;;;;;;;;;;;;;13.99;59.96;100133.91;4305267;33;19996;-86
2022/02/11 13:17:33;;;;;;;;;;;;;;;13.85;59.95;100151.88;4318603;33;19996;-85
2022/02/11 13:20:08;;;;;;;;;;;;;;;13.56;59.95;100157.41;4305256;33;20007;-87
2022/02/11 13:22:34;;;;;;;;;;;;;;;13.51;59.94;100166.28;4318702;33;19984;-86
2022/02/11 13:24:59;;;;;;;;;;;;;;;13.56;59.93;100166.09;4293060;33;20043;-89
2022/02/11 13:27:43;;;;;;;;;;;;;;;13.26;59.92;100190.75;4292653;33;19988;-89
2022/02/11 13:30:09;;;;;;;;;;;;;;;13.17;59.92;100181.44;4304908;33;20011;-87
2022/02/11 13:32:34;;;;;;;;;;;;;;;13.06;59.92;100189.66;4318686;33;19994;-88
2022/02/11 13:35:01;;;;;;;;;;;;;;;12.84;59.90;100209.59;4292756;33;19992;-87
2022/02/11 13:37:36;;;;;;;;;;;;;;;12.79;59.90;100206.31;4318649;33;19976;-88
2022/02/11 13:40:08;;;;;;;;;;;;;;;12.60;59.89;100204.28;4318732;33;19984;-87
2022/02/11 13:42:34;;;;;;;;;;;;;;;12.48;59.88;100203.81;4318793;33;19994;-89
2022/02/11 13:44:59;;;;;;;;;;;;;;;12.21;59.87;100211.62;4305307;33;20043;-87
2022/02/11 13:47:25;;;;;;;;;;;;;;;12.28;59.86;100214.91;4292778;33;19980;-87
2022/02/11 13:49:52;;;;;;;;;;;;;;;12.25;59.86;100228.06;4318434;33;20008;-86
2022/02/11 13:55:03;;;;;;;;;;;;;;;11.84;59.85;100234.53;4306799;33;19994;-87
2022/02/11 13:57:28;;;;;;;;;;;;;;;11.82;59.84;100255.44;4305207;33;20052;-87
2022/02/11 13:59:54;;;;;;;;;;;;;;;11.74;59.83;100260.00;4317651;33;19991;-86
2022/02/11 14:02:20;;;;;;;;;;;;;;;11.85;59.85;100255.38;4317685;33;20028;-88
2022/02/11 14:04:46;;;;;;;;;;;;;;;11.53;59.84;100257.97;4292841;33;19984;-88
2022/02/11 14:07:14;;;;;;;;;;;;;;;11.64;59.84;100259.41;4304845;33;20355;-88
2022/02/11 14:09:40;;;;;;;;;;;;;;;11.75;59.84;100260.84;4304820;33;20097;-89
2022/02/11 14:12:18;;;;;;;;;;;;;;;11.54;59.83;100263.16;4304824;33;20000;-86
2022/02/11 14:14:52;;;;;;;;;;;;;;;11.78;59.84;100256.41;4317991;33;19980;-86
2022/02/11 14:17:17;;;;;;;;;;;;;;;11.63;59.84;100262.06;4318024;33;19995;-87
2022/02/11 14:19:43;;;;;;;;;;;;;;;11.52;59.83;100264.94;4292656;33;20274;-86
2022/02/11 14:22:08;;;;;;;;;;;;;;;11.61;59.84;100261.25;4318125;33;20077;-88
2022/02/11 14:24:33;;;;;;;;;;;;;;;11.73;59.84;100273.94;4304538;33;19984;-87
2022/02/11 14:26:59;;;;;;;;;;;;;;;11.60;59.84;100268.22;4304502;33;19972;-86
2022/02/11 14:29:24;;;;;;;;;;;;;;;11.51;59.82;100259.78;4318038;33;20020;-86
2022/02/11 14:31:50;;;;;;;;;;;;;;;11.57;59.83;100264.81;4292611;33;20317;-87
2022/02/11 14:34:16;;;;;;;;;;;;;;;11.55;59.83;100269.22;4292573;33;19981;-86
2022/02/11 14:36:42;;;;;;;;;;;;;;;11.59;59.83;100265.62;4292737;33;20006;-86
2022/02/11 14:39:16;;;;;;;;;;;;;;;11.74;59.84;100267.81;4294546;33;20361;-93
2022/02/11 14:41:48;;;;;;;;;;;;;;;11.73;59.84;100267.84;4294722;33;19991;-90
2022/02/11 14:44:19;;;;;;;;;;;;;;;11.56;59.83;100269.19;4305520;33;20076;-91
2022/02/11 14:46:44;;;;;;;;;;;;;;;11.64;59.83;100271.59;4318598;33;20037;-90
2022/02/11 14:49:10;;;;;;;;;;;;;;;11.68;59.84;100270.59;4294860;33;19988;-93
2022/02/11 14:51:35;;;;;;;;;;;;;;;11.45;59.83;100281.66;4294418;33;20258;-93
2022/02/11 14:54:08;;;;;;;;;;;;;;;11.30;59.81;100284.66;4294567;33;20039;-93
2022/02/11 14:56:33;;;;;;;;;;;;;;;11.32;59.82;100283.72;4293940;33;19983;-92
2022/02/11 14:58:59;;;;;;;;;;;;;;;11.47;59.83;100292.06;4294620;33;20354;-93
2022/02/11 15:01:25;;;;;;;;;;;;;;;11.42;59.82;100304.34;4294645;33;20235;-93
2022/02/11 15:03:50;;;;;;;;;;;;;;;11.31;59.82;100302.00;4294921;33;20380;-93
2022/02/11 15:06:15;;;;;;;;;;;;;;;11.20;59.81;100304.06;4294296;33;19981;-92
2022/02/11 15:08:40;;;;;;;;;;;;;;;11.38;59.82;100309.66;4304385;33;19992;-90
2022/02/11 15:11:06;;;;;;;;;;;;;;;11.41;59.82;100313.06;4304149;33;23247;-89
2022/02/11 15:13:31;;;;;;;;;;;;;;;11.29;59.81;100309.03;4317434;33;20031;-90
2022/02/11 15:15:56;;;;;;;;;;;;;;;10.98;59.79;100319.38;4317650;33;20056;-89
2022/02/11 15:18:22;;;;;;;;;;;;;;;10.84;59.79;100305.81;4317747;33;20004;-86
2022/02/11 15:20:47;;;;;;;;;;;;;;;10.88;59.79;100318.72;4304195;33;20358;-85
2022/02/11 15:23:12;;;;;;;;;;;;;;;10.98;59.79;100311.56;4304108;33;19984;-86
2022/02/11 15:25:38;;;;;;;;;;;;;;;10.88;59.79;100317.88;4317291;33;20410;-87
2022/02/11 15:28:03;;;;;;;;;;;;;;;10.79;59.79;100325.91;4304179;33;19985;-86
2022/02/11 15:30:29;;;;;;;;;;;;;;;10.68;59.79;100334.84;4304058;33;20378;-88
2022/02/11 15:32:54;;;;;;;;;;;;;;;10.47;59.76;100342.28;4317257;33;19992;-88
2022/02/11 15:35:20;;;;;;;;;;;;;;;10.39;59.76;100339.81;4317358;33;20023;-89
2022/02/11 15:37:45;;;;;;;;;;;;;;;10.17;59.76;100344.59;4304174;33;20262;-88
2022/02/11 15:40:10;;;;;;;;;;;;;;;10.25;59.76;100341.87;4303884;33;20014;-83
2022/02/11 15:42:36;;;;;;;;;;;;;;;10.28;59.76;100336.59;4315998;33;19992;-85
2022/02/11 15:45:01;;;;;;;;;;;;;;;10.24;59.76;100346.22;4303698;33;19996;-85
2022/02/11 15:47:28;;;;;;;;;;;;;;;10.44;59.77;100348.41;4317320;33;19988;-85
2022/02/11 15:49:53;;;;;;;;;;;;;;;10.33;59.76;100352.97;4317434;33;20004;-84
2022/02/11 15:52:18;;;;;;;;;;;;;;;10.28;59.75;100358.28;4303596;33;19994;-84
2022/02/11 15:54:44;;;;;;;;;;;;;;;10.43;59.76;100350.16;4317283;33;20023;-84
2022/02/11 15:57:09;;;;;;;;;;;;;;;10.42;59.77;100364.06;4317040;33;20468;-83
2022/02/11 15:59:34;;;;;;;;;;;;;;;10.16;59.76;100354.12;4303345;33;20007;-83
2022/02/11 16:02:00;;;;;;;;;;;;;;;10.18;59.76;100359.34;4317087;33;20058;-85
2022/02/11 16:04:25;;;;;;;;;;;;;;;9.98;59.74;100362.34;4316946;33;20290;-85
2022/02/11 16:06:51;;;;;;;;;;;;;;;9.92;59.74;100369.37;4303306;33;20031;-85
2022/02/11 16:09:16;;;;;;;;;;;;;;;9.83;59.73;100373.03;4316830;33;20028;-84
2022/02/11 16:11:41;;;;;;;;;;;;;;;9.78;59.72;100393.91;4316867;33;20301;-85
2022/02/11 16:14:09;;;;;;;;;;;;;;;9.74;59.73;100381.88;4303205;33;20258;-85
2022/02/11 16:16:35;;;;;;;;;;;;;;;9.60;59.72;100398.59;4316820;33;20341;-85
2022/02/11 16:19:00;;;;;;;;;;;;;;;9.71;59.72;100392.31;4316730;33;20039;-85
2022/02/11 16:21:25;;;;;;;;;;;;;;;9.62;59.72;100394.22;4316034;33;19980;-84
2022/02/11 16:23:50;;;;;;;;;;;;;;;9.43;59.72;100391.06;4316436;33;19996;-84
2022/02/11 16:26:17;;;;;;;;;;;;;;;9.51;59.72;100390.06;4317101;33;20378;-84
2022/02/11 16:28:42;;;;;;;;;;;;;;;9.43;59.71;100409.25;4304116;33;19996;-85
2022/02/11 16:31:17;;;;;;;;;;;;;;;9.50;59.72;100397.91;4317325;33;19994;-86
2022/02/11 16:33:42;;;;;;;;;;;;;;;9.23;59.70;100422.59;4317575;33;20028;-85
2022/02/11 16:36:08;;;;;;;;;;;;;;;9.31;59.70;100414.69;4303952;33;20270;-84
2022/02/11 16:38:33;;;;;;;;;;;;;;;9.29;59.71;100434.63;4317586;33;19995;-83
2022/02/11 16:40:58;;;;;;;;;;;;;;;9.12;59.69;100427.09;4291752;33;20322;-84